Time;durP1;ratioP1;P1;durP2;ratioP2;P2;SDS_P1;SDS_P2;PMS_P1;PMS_P2;Temp;Humidity;BMP_temperature;BMP_pressure;BME280_temperature;BME280_humidity;BME280_pressure;Samples;Min_cycle;Max_cycle;Signal;HPM_P1;HPM_P2
2023/03/18 00:03:44;;;;;;;;;;;17.80;66.70;;;;;;10310183;28;93312;-70
2023/03/18 00:08:47;;;;;;;;;;;17.80;66.60;;;;;;10327792;28;93194;-70
2023/03/18 00:13:49;;;;;;;;;;;17.80;66.50;;;;;;10327688;28;93597;-71
2023/03/18 00:18:51;;;;;;;;;;;17.90;66.60;;;;;;10324127;28;95844;-71
2023/03/18 00:23:55;;;;;;;;;;;17.80;66.50;;;;;;10327101;28;94018;-70
2023/03/18 00:28:57;;;;;;;;;;;17.80;66.50;;;;;;10327733;28;94207;-70
2023/03/18 00:33:59;;;;;;;;;;;17.80;66.50;;;;;;10342001;28;93625;-70
2023/03/18 00:39:02;;;;;;;;;;;17.80;66.40;;;;;;10328640;28;94578;-70
2023/03/18 00:44:04;;;;;;;;;;;17.80;66.40;;;;;;10334223;28;93441;-71
2023/03/18 00:49:06;;;;;;;;;;;17.80;66.40;;;;;;10333016;28;93470;-70
2023/03/18 00:54:09;;;;;;;;;;;17.70;66.30;;;;;;10333949;28;93111;-70
2023/03/18 00:59:12;;;;;;;;;;;17.70;66.20;;;;;;10349911;28;93494;-70
2023/03/18 01:04:14;;;;;;;;;;;17.70;66.20;;;;;;10333121;28;93786;-70
2023/03/18 01:09:16;;;;;;;;;;;17.70;66.20;;;;;;10329978;28;97195;-69
2023/03/18 01:14:18;;;;;;;;;;;17.70;66.20;;;;;;10332868;28;93978;-69
2023/03/18 01:19:19;;;;;;;;;;;17.70;66.20;;;;;;10332068;28;94467;-70
2023/03/18 01:24:21;;;;;;;;;;;17.70;66.20;;;;;;10333202;28;93480;-70
2023/03/18 01:29:24;;;;;;;;;;;17.70;66.20;;;;;;10332277;28;94471;-69
2023/03/18 01:34:25;;;;;;;;;;;17.70;66.20;;;;;;10331874;28;94450;-69
2023/03/18 01:39:27;;;;;;;;;;;17.70;66.20;;;;;;10331646;28;93677;-68
2023/03/18 01:44:30;;;;;;;;;;;17.60;66.10;;;;;;10333223;28;93860;-69
2023/03/18 01:49:38;;;;;;;;;;;17.60;66.10;;;;;;10330596;28;93638;-69
2023/03/18 01:54:42;;;;;;;;;;;17.60;66.10;;;;;;10314249;28;93535;-70
2023/03/18 01:59:45;;;;;;;;;;;17.60;66.00;;;;;;10311004;28;96671;-70
2023/03/18 02:04:49;;;;;;;;;;;17.60;66.30;;;;;;10332019;28;94598;-69
2023/03/18 02:09:51;;;;;;;;;;;17.60;66.00;;;;;;10330751;28;93400;-70
2023/03/18 02:14:53;;;;;;;;;;;17.60;66.00;;;;;;10330791;28;93247;-70
2023/03/18 02:20:11;;;;;;;;;;;17.60;66.00;;;;;;10330851;28;93639;-70
2023/03/18 02:25:31;;;;;;;;;;;17.50;65.90;;;;;;10330571;28;94484;-70
2023/03/18 02:30:36;;;;;;;;;;;17.60;65.90;;;;;;10330830;28;94347;-70
2023/03/18 02:35:37;;;;;;;;;;;17.60;65.90;;;;;;10330918;28;94116;-70
2023/03/18 02:40:40;;;;;;;;;;;17.60;65.90;;;;;;10311870;28;92727;-70
2023/03/18 02:46:00;;;;;;;;;;;17.60;66.80;;;;;;10330020;28;93441;-70
2023/03/18 02:51:03;;;;;;;;;;;17.60;65.90;;;;;;10327276;28;95903;-70
2023/03/18 02:56:05;;;;;;;;;;;17.60;65.80;;;;;;10329160;28;93797;-70
2023/03/18 03:01:07;;;;;;;;;;;17.60;65.70;;;;;;10328942;28;93272;-70
2023/03/18 03:06:09;;;;;;;;;;;17.60;65.70;;;;;;10329234;28;93418;-70
2023/03/18 03:11:12;;;;;;;;;;;17.60;65.70;;;;;;10328884;28;93284;-70
2023/03/18 03:16:14;;;;;;;;;;;17.50;65.60;;;;;;10312283;28;94402;-70
2023/03/18 03:21:17;;;;;;;;;;;17.60;65.60;;;;;;10343926;28;94455;-70
2023/03/18 03:26:19;;;;;;;;;;;17.50;65.70;;;;;;10310907;28;92967;-69
2023/03/18 03:31:21;;;;;;;;;;;17.50;65.60;;;;;;10327658;28;94546;-70
2023/03/18 03:36:23;;;;;;;;;;;17.60;65.60;;;;;;10328495;28;94303;-69
2023/03/18 03:41:25;;;;;;;;;;;17.50;65.60;;;;;;10325209;28;96790;-71
2023/03/18 03:46:27;;;;;;;;;;;17.50;65.50;;;;;;10328638;28;94340;-69
2023/03/18 03:51:29;;;;;;;;;;;17.60;65.70;;;;;;10327547;28;93596;-69
2023/03/18 03:56:30;;;;;;;;;;;17.50;65.60;;;;;;10327681;28;93459;-71
2023/03/18 04:01:33;;;;;;;;;;;17.50;65.50;;;;;;10326589;28;92574;-70
2023/03/18 04:06:35;;;;;;;;;;;17.50;65.50;;;;;;10309406;28;93629;-69
2023/03/18 04:11:37;;;;;;;;;;;17.50;65.60;;;;;;10328233;28;93299;-70
2023/03/18 04:16:39;;;;;;;;;;;17.50;65.60;;;;;;10333112;28;92308;-69
2023/03/18 04:21:41;;;;;;;;;;;17.50;65.50;;;;;;10335293;28;93846;-69
2023/03/18 04:26:43;;;;;;;;;;;17.50;65.60;;;;;;10348603;28;93437;-69
2023/03/18 04:31:45;;;;;;;;;;;17.40;65.40;;;;;;10332485;28;96604;-69
2023/03/18 04:36:47;;;;;;;;;;;17.40;65.40;;;;;;10334511;28;94651;-70
2023/03/18 04:41:49;;;;;;;;;;;17.40;65.40;;;;;;10315596;28;93926;-70
2023/03/18 06:04:44;;;;;;;;;;;17.30;65.20;;;;;;10159245;28;93494;-72
2023/03/18 06:09:47;;;;;;;;;;;17.30;65.20;;;;;;10155984;28;93431;-69
2023/03/18 06:14:49;;;;;;;;;;;17.40;66.20;;;;;;10172905;28;92164;-73
2023/03/18 06:19:51;;;;;;;;;;;17.40;66.10;;;;;;10171784;28;97187;-70
2023/03/18 06:24:53;;;;;;;;;;;17.40;66.20;;;;;;10169903;28;93722;-71
2023/03/18 06:29:55;;;;;;;;;;;17.50;66.50;;;;;;10148772;28;95975;-73
2023/03/18 06:34:56;;;;;;;;;;;17.50;66.80;;;;;;10168607;28;93928;-69
2023/03/18 06:39:59;;;;;;;;;;;17.50;67.00;;;;;;10166482;28;93515;-69
2023/03/18 06:45:00;;;;;;;;;;;17.50;66.70;;;;;;10170670;28;95726;-69
2023/03/18 06:50:02;;;;;;;;;;;17.50;66.60;;;;;;10163665;28;93925;-69
2023/03/18 06:55:05;;;;;;;;;;;17.50;66.60;;;;;;10169773;28;94234;-70
2023/03/18 07:00:07;;;;;;;;;;;17.50;66.60;;;;;;10170415;28;93226;-70
2023/03/18 07:05:11;;;;;;;;;;;17.40;66.50;;;;;;10170956;28;93695;-70
2023/03/18 07:10:17;;;;;;;;;;;17.50;66.60;;;;;;10151367;28;93076;-70
2023/03/18 07:15:22;;;;;;;;;;;17.40;66.50;;;;;;10153084;28;93355;-70
2023/03/18 07:20:24;;;;;;;;;;;17.40;66.50;;;;;;10167511;28;96010;-70
2023/03/18 07:25:26;;;;;;;;;;;17.40;66.50;;;;;;10167931;28;93369;-70
2023/03/18 07:30:27;;;;;;;;;;;17.40;66.50;;;;;;10168914;28;93952;-69
2023/03/18 07:35:29;;;;;;;;;;;17.40;66.50;;;;;;10148430;28;94520;-70
2023/03/18 07:40:31;;;;;;;;;;;17.30;66.50;;;;;;10167293;28;93445;-70
2023/03/18 07:45:33;;;;;;;;;;;17.30;66.50;;;;;;10168038;28;93113;-69
2023/03/18 07:50:35;;;;;;;;;;;17.40;67.20;;;;;;10166243;28;93500;-68
2023/03/18 07:55:37;;;;;;;;;;;17.40;66.90;;;;;;10169021;28;92807;-69
2023/03/18 08:00:38;;;;;;;;;;;17.50;66.90;;;;;;10168426;28;96727;-72
2023/03/18 08:05:40;;;;;;;;;;;17.70;67.50;;;;;;10168799;28;93405;-71
2023/03/18 08:10:42;;;;;;;;;;;17.90;67.10;;;;;;10165237;28;95603;-71
2023/03/18 08:15:43;;;;;;;;;;;18.00;67.80;;;;;;10168416;28;93276;-72
2023/03/18 08:20:45;;;;;;;;;;;18.10;66.60;;;;;;10148715;28;93589;-70
2023/03/18 08:25:50;;;;;;;;;;;18.20;66.90;;;;;;10167929;28;94926;-67
2023/03/18 08:30:53;;;;;;;;;;;18.20;66.50;;;;;;10167514;28;93418;-70
2023/03/18 08:35:55;;;;;;;;;;;18.20;65.70;;;;;;10166635;28;93419;-72
2023/03/18 08:40:56;;;;;;;;;;;18.20;65.40;;;;;;10166048;28;93464;-72
2023/03/18 08:45:58;;;;;;;;;;;18.20;65.00;;;;;;10151477;28;92780;-71
2023/03/18 08:51:04;;;;;;;;;;;18.00;63.60;;;;;;10165736;28;93754;-71
2023/03/18 08:56:06;;;;;;;;;;;17.80;63.70;;;;;;10167460;28;96020;-71
2023/03/18 09:01:08;;;;;;;;;;;17.80;64.20;;;;;;10167783;28;97371;-71
2023/03/18 09:06:12;;;;;;;;;;;17.80;64.30;;;;;;10174047;28;93116;-74
2023/03/18 09:11:15;;;;;;;;;;;17.90;64.30;;;;;;10173511;28;94506;-71
2023/03/18 09:16:17;;;;;;;;;;;18.00;64.30;;;;;;10155578;28;95107;-71
2023/03/18 09:21:19;;;;;;;;;;;18.00;64.30;;;;;;10155560;28;93970;-70
2023/03/18 09:26:20;;;;;;;;;;;18.00;64.20;;;;;;10172393;28;93482;-71
2023/03/18 09:31:23;;;;;;;;;;;18.00;64.20;;;;;;10173422;28;92776;-71
2023/03/18 09:36:25;;;;;;;;;;;18.00;64.20;;;;;;10155407;28;93804;-71
2023/03/18 09:41:45;;;;;;;;;;;18.10;64.10;;;;;;10171731;28;93867;-70
2023/03/18 09:46:47;;;;;;;;;;;18.10;64.00;;;;;;10154741;28;94497;-70
2023/03/18 09:51:55;;;;;;;;;;;18.20;63.90;;;;;;10167875;28;96386;-70
2023/03/18 09:56:57;;;;;;;;;;;18.30;63.90;;;;;;10155249;28;94220;-70
2023/03/18 10:02:00;;;;;;;;;;;18.30;63.80;;;;;;10169883;28;93317;-69
2023/03/18 10:07:06;;;;;;;;;;;18.30;63.90;;;;;;10154322;28;93356;-69
2023/03/18 10:12:15;;;;;;;;;;;18.30;63.80;;;;;;10153377;28;94613;-70
2023/03/18 10:17:17;;;;;;;;;;;18.30;63.70;;;;;;10172040;28;93666;-70
2023/03/18 10:22:26;;;;;;;;;;;18.50;63.70;;;;;;10171546;28;93247;-69
2023/03/18 10:27:28;;;;;;;;;;;18.50;63.50;;;;;;10154354;28;92740;-70
2023/03/18 10:32:39;;;;;;;;;;;18.50;63.50;;;;;;10153302;28;93347;-69
2023/03/18 10:38:17;;;;;;;;;;;18.50;63.50;;;;;;10154622;28;93431;-69
2023/03/18 10:43:20;;;;;;;;;;;18.50;63.50;;;;;;10146828;28;96893;-70
2023/03/18 10:48:42;;;;;;;;;;;18.50;63.60;;;;;;10169634;28;94581;-69
2023/03/18 10:53:52;;;;;;;;;;;18.50;63.60;;;;;;10153446;28;94774;-70
2023/03/18 10:58:55;;;;;;;;;;;18.50;63.60;;;;;;10169713;28;92841;-69
2023/03/18 11:04:00;;;;;;;;;;;18.50;63.50;;;;;;10169780;28;93483;-70
2023/03/18 11:09:10;;;;;;;;;;;18.40;63.60;;;;;;10152579;28;94637;-69
2023/03/18 11:14:13;;;;;;;;;;;18.40;63.50;;;;;;10169305;28;93326;-71
2023/03/18 11:19:22;;;;;;;;;;;18.40;63.50;;;;;;10170546;28;92532;-71
2023/03/18 11:24:37;;;;;;;;;;;18.40;63.50;;;;;;10152801;28;94141;-70
2023/03/18 11:29:40;;;;;;;;;;;18.40;63.60;;;;;;10152387;28;93158;-70
2023/03/18 11:34:52;;;;;;;;;;;18.40;63.50;;;;;;10167042;28;95718;-70
2023/03/18 11:40:05;;;;;;;;;;;18.40;63.50;;;;;;10152715;28;94466;-71
2023/03/18 11:45:26;;;;;;;;;;;18.40;63.50;;;;;;10150839;28;93470;-69
2023/03/18 11:50:35;;;;;;;;;;;18.40;63.60;;;;;;10167820;28;93354;-68
2023/03/18 11:55:40;;;;;;;;;;;18.50;65.00;;;;;;10167834;28;93419;-69
2023/03/18 12:00:49;;;;;;;;;;;18.50;64.70;;;;;;10168574;28;92587;-68
2023/03/18 12:06:00;;;;;;;;;;;18.50;64.40;;;;;;10150844;28;93677;-68
2023/03/18 12:11:06;;;;;;;;;;;18.50;63.90;;;;;;10151441;28;93732;-66
2023/03/18 12:16:11;;;;;;;;;;;18.50;63.90;;;;;;10150212;28;94556;-65
2023/03/18 12:21:19;;;;;;;;;;;18.50;63.80;;;;;;10149551;28;93302;-65
2023/03/18 12:26:25;;;;;;;;;;;18.50;63.70;;;;;;10165293;28;96884;-66
2023/03/18 12:31:35;;;;;;;;;;;18.50;63.30;;;;;;10166640;28;93793;-66
2023/03/18 12:36:47;;;;;;;;;;;18.50;63.20;;;;;;10170783;28;94286;-67
2023/03/18 12:41:49;;;;;;;;;;;18.50;63.10;;;;;;10172575;28;95090;-67
2023/03/18 12:46:54;;;;;;;;;;;18.50;62.50;;;;;;10172800;28;93672;-67
2023/03/18 12:51:59;;;;;;;;;;;18.50;62.50;;;;;;10155778;28;93468;-66
2023/03/18 12:57:10;;;;;;;;;;;18.50;62.60;;;;;;10155579;28;93145;-67
2023/03/18 13:02:24;;;;;;;;;;;18.40;62.60;;;;;;10173266;28;92439;-68
2023/03/18 13:07:45;;;;;;;;;;;18.40;62.60;;;;;;10172914;28;93492;-67
2023/03/18 13:12:50;;;;;;;;;;;18.30;62.80;;;;;;10139321;28;94460;-67
2023/03/18 13:17:55;;;;;;;;;;;18.30;62.90;;;;;;10170527;28;97084;-67
2023/03/18 13:23:16;;;;;;;;;;;18.30;63.00;;;;;;10171778;28;93732;-67
2023/03/18 13:28:37;;;;;;;;;;;18.30;63.00;;;;;;10154923;28;94586;-67
2023/03/18 13:33:46;;;;;;;;;;;18.30;63.00;;;;;;10171503;28;93722;-67
2023/03/18 13:38:51;;;;;;;;;;;18.20;63.00;;;;;;10154668;28;93325;-66
2023/03/18 13:43:55;;;;;;;;;;;18.20;63.00;;;;;;10171755;28;93300;-67
2023/03/18 13:48:58;;;;;;;;;;;18.20;63.10;;;;;;10171548;28;93016;-67
2023/03/18 13:54:04;;;;;;;;;;;18.20;63.00;;;;;;10171188;28;92918;-67
2023/03/18 13:59:06;;;;;;;;;;;18.10;63.10;;;;;;10171018;28;93382;-67
2023/03/18 14:04:14;;;;;;;;;;;18.10;63.10;;;;;;10171141;28;96686;-67
2023/03/18 14:09:36;;;;;;;;;;;18.10;63.20;;;;;;10168281;28;96090;-67
2023/03/18 14:14:41;;;;;;;;;;;18.10;63.30;;;;;;10170299;28;93334;-67
2023/03/18 14:19:44;;;;;;;;;;;18.10;63.40;;;;;;10153197;28;93974;-67
2023/03/18 14:24:46;;;;;;;;;;;18.00;63.30;;;;;;10170561;28;93636;-67
2023/03/18 14:29:48;;;;;;;;;;;18.00;63.50;;;;;;10170162;28;92836;-67
2023/03/18 14:35:02;;;;;;;;;;;18.00;63.50;;;;;;10168975;28;93455;-67
2023/03/18 14:40:04;;;;;;;;;;;18.00;63.50;;;;;;10170650;28;94318;-67
2023/03/18 14:45:26;;;;;;;;;;;18.00;63.60;;;;;;10169875;28;92770;-67
2023/03/18 14:50:34;;;;;;;;;;;18.00;63.60;;;;;;10151776;28;95984;-67
2023/03/18 14:55:36;;;;;;;;;;;18.00;63.70;;;;;;10169388;28;93303;-66
2023/03/18 15:00:38;;;;;;;;;;;18.10;63.80;;;;;;10166387;28;95398;-67
2023/03/18 15:05:41;;;;;;;;;;;18.10;63.80;;;;;;10170462;28;93235;-67
2023/03/18 15:10:45;;;;;;;;;;;18.00;63.70;;;;;;10152405;28;94663;-67
2023/03/18 15:15:47;;;;;;;;;;;18.00;63.70;;;;;;10152883;28;93621;-67
2023/03/18 15:20:51;;;;;;;;;;;18.00;63.80;;;;;;10168430;28;93419;-67
2023/03/18 15:25:52;;;;;;;;;;;18.00;63.80;;;;;;10169244;28;94457;-66
2023/03/18 15:30:55;;;;;;;;;;;18.00;63.80;;;;;;10168033;28;94992;-66
2023/03/18 15:36:06;;;;;;;;;;;18.00;63.80;;;;;;10169289;28;93739;-66
2023/03/18 15:41:11;;;;;;;;;;;18.00;64.00;;;;;;10169234;28;92504;-66
2023/03/18 15:46:31;;;;;;;;;;;18.10;64.20;;;;;;10151724;28;93534;-66
2023/03/18 15:51:39;;;;;;;;;;;18.20;64.20;;;;;;10164184;28;96400;-67
2023/03/18 15:56:45;;;;;;;;;;;18.20;64.20;;;;;;10168632;28;93572;-67
2023/03/18 16:01:47;;;;;;;;;;;18.20;64.30;;;;;;10150859;28;93699;-67
2023/03/18 16:06:49;;;;;;;;;;;18.30;64.30;;;;;;10168807;28;93615;-66
2023/03/18 16:11:52;;;;;;;;;;;18.40;64.40;;;;;;10173036;28;94885;-67
2023/03/18 16:16:53;;;;;;;;;;;18.40;64.40;;;;;;10176045;28;94491;-67
2023/03/18 16:21:57;;;;;;;;;;;18.50;64.40;;;;;;10175899;28;94755;-66
2023/03/18 16:26:59;;;;;;;;;;;18.50;64.40;;;;;;10175801;28;93179;-67
2023/03/18 16:32:00;;;;;;;;;;;18.50;64.30;;;;;;10174806;28;93167;-66
2023/03/18 16:37:03;;;;;;;;;;;18.50;64.30;;;;;;10174087;28;94619;-66
2023/03/18 16:42:05;;;;;;;;;;;18.50;64.30;;;;;;10170777;28;96417;-66
2023/03/18 16:47:09;;;;;;;;;;;18.50;64.30;;;;;;10173748;28;93243;-66
2023/03/18 16:52:11;;;;;;;;;;;18.50;64.30;;;;;;10172576;28;93281;-64
2023/03/18 16:57:15;;;;;;;;;;;18.50;65.40;;;;;;10156081;28;93622;-65
2023/03/18 17:02:29;;;;;;;;;;;18.50;66.00;;;;;;10155963;28;94477;-66
2023/03/18 17:07:32;;;;;;;;;;;18.50;65.80;;;;;;10173774;28;93840;-65
2023/03/18 17:12:35;;;;;;;;;;;18.60;65.20;;;;;;10155925;28;93167;-69
2023/03/18 17:17:37;;;;;;;;;;;18.60;67.20;;;;;;10174777;28;92795;-67
2023/03/18 17:22:39;;;;;;;;;;;18.70;66.80;;;;;;10172457;28;93789;-68
2023/03/18 17:27:49;;;;;;;;;;;18.80;70.70;;;;;;10173505;28;94788;-67
2023/03/18 17:32:51;;;;;;;;;;;18.80;71.20;;;;;;10171211;28;95682;-69
2023/03/18 17:37:53;;;;;;;;;;;19.00;69.90;;;;;;10171220;28;94256;-68
2023/03/18 17:42:55;;;;;;;;;;;19.10;68.70;;;;;;10154702;28;92755;-68
2023/03/18 17:48:08;;;;;;;;;;;19.10;68.60;;;;;;10169731;28;93499;-69
2023/03/18 17:53:20;;;;;;;;;;;19.10;68.40;;;;;;10170737;28;93467;-70
2023/03/18 17:58:22;;;;;;;;;;;19.10;68.40;;;;;;10154237;28;93874;-70
2023/03/18 18:03:26;;;;;;;;;;;19.10;68.50;;;;;;10172788;28;97019;-69
2023/03/18 18:08:28;;;;;;;;;;;19.00;68.50;;;;;;10171583;28;92880;-68
2023/03/18 18:13:31;;;;;;;;;;;19.00;68.30;;;;;;10172136;28;97368;-65
2023/03/18 18:18:34;;;;;;;;;;;19.00;68.90;;;;;;10152759;28;94904;-69
2023/03/18 18:23:36;;;;;;;;;;;19.00;69.10;;;;;;10169054;28;96481;-66
2023/03/18 18:28:42;;;;;;;;;;;19.00;68.60;;;;;;10170952;28;93781;-66
2023/03/18 18:33:44;;;;;;;;;;;19.00;68.10;;;;;;10167339;28;94096;-67
2023/03/18 18:38:46;;;;;;;;;;;18.90;68.00;;;;;;10169585;28;93471;-65
2023/03/18 18:43:48;;;;;;;;;;;18.80;67.90;;;;;;10151725;28;94129;-65
2023/03/18 18:48:50;;;;;;;;;;;18.80;68.00;;;;;;10168870;28;93779;-64
2023/03/18 18:53:52;;;;;;;;;;;18.70;68.10;;;;;;10169235;28;93373;-65
2023/03/18 18:58:55;;;;;;;;;;;18.70;68.10;;;;;;10171425;28;92741;-65
2023/03/18 19:03:57;;;;;;;;;;;18.70;68.20;;;;;;10168311;28;92557;-65
2023/03/18 19:08:59;;;;;;;;;;;18.70;68.30;;;;;;10152724;28;94475;-65
2023/03/18 19:14:16;;;;;;;;;;;18.70;68.40;;;;;;10164874;28;95133;-65
2023/03/18 19:19:19;;;;;;;;;;;18.60;68.40;;;;;;10134959;28;93413;-65
2023/03/18 19:24:27;;;;;;;;;;;18.60;68.40;;;;;;10149796;28;93649;-67
2023/03/18 19:29:31;;;;;;;;;;;18.60;68.40;;;;;;10168311;28;113979;-66
2023/03/18 19:34:34;;;;;;;;;;;18.60;68.40;;;;;;10149812;28;94258;-65
2023/03/18 19:39:36;;;;;;;;;;;18.60;68.40;;;;;;10166786;28;94478;-65
2023/03/18 19:44:38;;;;;;;;;;;18.60;68.40;;;;;;10150105;28;94555;-65
2023/03/18 19:49:40;;;;;;;;;;;18.60;68.50;;;;;;10166833;28;93217;-65
2023/03/18 19:54:42;;;;;;;;;;;18.60;68.60;;;;;;10149576;28;93963;-65
2023/03/18 19:59:45;;;;;;;;;;;18.60;68.60;;;;;;10165838;28;93621;-65
2023/03/18 20:04:48;;;;;;;;;;;18.60;68.70;;;;;;10163912;28;96033;-65
2023/03/18 20:09:50;;;;;;;;;;;18.60;68.70;;;;;;10166615;28;94434;-65
2023/03/18 20:14:52;;;;;;;;;;;18.60;68.70;;;;;;10166947;28;94543;-67
2023/03/18 20:19:53;;;;;;;;;;;18.50;68.60;;;;;;10166320;28;92832;-64
2023/03/18 20:24:55;;;;;;;;;;;18.50;68.70;;;;;;10148395;28;94664;-63
2023/03/18 20:29:57;;;;;;;;;;;18.50;68.80;;;;;;10149184;28;94510;-64
2023/03/18 20:34:59;;;;;;;;;;;18.50;68.90;;;;;;10148634;28;94473;-64
2023/03/18 20:40:05;;;;;;;;;;;18.50;68.90;;;;;;10167200;28;93725;-64
2023/03/18 20:45:12;;;;;;;;;;;18.50;68.90;;;;;;10166461;28;94687;-64
2023/03/18 20:50:18;;;;;;;;;;;18.50;69.00;;;;;;10164031;28;93420;-64
2023/03/18 20:55:28;;;;;;;;;;;18.50;69.00;;;;;;10163894;28;96911;-64
2023/03/18 21:00:31;;;;;;;;;;;18.40;68.90;;;;;;10171203;28;93648;-64
2023/03/18 21:05:33;;;;;;;;;;;18.40;69.10;;;;;;10172715;28;94452;-64
2023/03/18 21:10:36;;;;;;;;;;;18.40;69.10;;;;;;10171254;28;93684;-64
2023/03/18 21:15:37;;;;;;;;;;;18.40;69.10;;;;;;10171223;28;93290;-64
2023/03/18 21:20:39;;;;;;;;;;;18.40;69.20;;;;;;10154163;28;93064;-65
2023/03/18 21:25:41;;;;;;;;;;;18.40;69.10;;;;;;10170583;28;93070;-66
2023/03/18 21:30:44;;;;;;;;;;;18.40;69.10;;;;;;10154198;28;93015;-65
2023/03/18 21:35:46;;;;;;;;;;;18.40;69.20;;;;;;10172822;28;93569;-65
2023/03/18 21:40:48;;;;;;;;;;;18.40;69.30;;;;;;10171970;28;94682;-65
2023/03/18 21:45:50;;;;;;;;;;;18.40;69.30;;;;;;10169086;28;96088;-64
2023/03/18 21:50:51;;;;;;;;;;;18.40;69.40;;;;;;10170536;28;93602;-65
2023/03/18 21:55:53;;;;;;;;;;;18.40;69.50;;;;;;10154410;28;94121;-65
2023/03/18 22:00:58;;;;;;;;;;;18.40;69.40;;;;;;10169886;28;93651;-65
2023/03/18 22:06:00;;;;;;;;;;;18.40;69.50;;;;;;10152191;28;92680;-65
2023/03/18 22:11:02;;;;;;;;;;;18.40;69.60;;;;;;10170341;28;94531;-65
2023/03/18 22:16:03;;;;;;;;;;;18.40;69.40;;;;;;10169871;28;94637;-65
2023/03/18 22:21:31;;;;;;;;;;;18.40;69.30;;;;;;10170633;28;92945;-65
2023/03/18 22:26:33;;;;;;;;;;;18.50;68.80;;;;;;10167735;28;94310;-65
2023/03/18 22:31:35;;;;;;;;;;;18.40;68.70;;;;;;10171197;28;93929;-65
2023/03/18 22:36:37;;;;;;;;;;;18.40;68.60;;;;;;10167238;28;95976;-65
2023/03/18 22:41:39;;;;;;;;;;;18.30;68.60;;;;;;10169869;28;94469;-65
2023/03/18 22:46:40;;;;;;;;;;;18.40;68.60;;;;;;10169205;28;94003;-65
2023/03/18 22:51:43;;;;;;;;;;;18.30;68.40;;;;;;10168110;28;93030;-65
2023/03/18 22:56:45;;;;;;;;;;;18.30;68.40;;;;;;10151013;28;94486;-65
2023/03/18 23:01:47;;;;;;;;;;;18.20;68.20;;;;;;10151315;28;93813;-65
2023/03/18 23:06:49;;;;;;;;;;;18.20;68.30;;;;;;10168597;28;93642;-65
2023/03/18 23:11:51;;;;;;;;;;;18.20;68.20;;;;;;10170499;28;94039;-65
2023/03/18 23:16:52;;;;;;;;;;;18.20;68.20;;;;;;10168648;28;93139;-64
2023/03/18 23:21:54;;;;;;;;;;;18.20;68.10;;;;;;10168884;28;94076;-65
2023/03/18 23:26:56;;;;;;;;;;;18.20;68.10;;;;;;10165786;28;94872;-65
2023/03/18 23:31:58;;;;;;;;;;;18.20;68.10;;;;;;10167499;28;94096;-65
2023/03/18 23:37:00;;;;;;;;;;;18.20;68.10;;;;;;10169075;28;94459;-65
2023/03/18 23:42:02;;;;;;;;;;;18.20;68.10;;;;;;10169019;28;92921;-65
2023/03/18 23:47:04;;;;;;;;;;;18.10;68.10;;;;;;10167681;28;94206;-65
2023/03/18 23:52:07;;;;;;;;;;;18.10;68.10;;;;;;10150130;28;93147;-65
2023/03/18 23:57:09;;;;;;;;;;;18.10;68.00;;;;;;10167854;28;94914;-65
